Time;durP1;ratioP1;P1;durP2;ratioP2;P2;SDS_P1;SDS_P2;PMS_P1;PMS_P2;Temp;Humidity;BMP_temperature;BMP_pressure;BME280_temperature;BME280_humidity;BME280_pressure;Samples;Min_cycle;Max_cycle;Signal;HPM_P1;HPM_P2
2023/09/15 00:00:20;;;;;;;9.23;5.45;;;;;;;10.36;99.23;101870.84;5050444;28;20041;-77
2023/09/15 00:02:47;;;;;;;9.00;4.97;;;;;;;10.36;99.83;101880.75;5050423;28;20067;-77
2023/09/15 00:05:13;;;;;;;7.45;5.40;;;;;;;10.34;99.44;101872.88;5047190;28;20083;-76
2023/09/15 00:07:39;;;;;;;9.88;5.38;;;;;;;10.35;99.80;101873.69;5049870;28;20573;-76
2023/09/15 00:10:06;;;;;;;9.20;5.18;;;;;;;10.30;99.84;101872.38;5050222;28;20468;-77
2023/09/15 00:12:31;;;;;;;9.10;5.10;;;;;;;10.30;99.48;101868.84;5052792;28;20110;-76
2023/09/15 00:14:58;;;;;;;9.00;5.00;;;;;;;10.30;99.45;101869.69;5050061;28;20068;-77
2023/09/15 00:17:25;;;;;;;7.55;5.15;;;;;;;10.41;99.45;101867.69;5050898;28;20043;-76
2023/09/15 00:19:50;;;;;;;7.95;5.13;;;;;;;10.37;99.02;101872.53;5042726;28;20048;-77
2023/09/15 00:22:16;;;;;;;8.27;5.60;;;;;;;10.39;99.06;101867.00;5050139;28;20025;-77
2023/09/15 00:24:41;;;;;;;7.07;5.00;;;;;;;10.38;98.77;101866.19;5049581;28;20025;-77
2023/09/15 00:27:06;;;;;;;8.85;4.82;;;;;;;10.39;99.11;101870.56;5051447;28;20025;-76
2023/09/15 00:29:32;;;;;;;8.75;4.78;;;;;;;10.37;98.95;101860.91;5051691;28;20028;-76
2023/09/15 00:31:57;;;;;;;8.90;5.45;;;;;;;10.41;99.29;101864.97;5048883;28;20036;-76
2023/09/15 00:34:23;;;;;;;7.20;4.90;;;;;;;10.41;99.08;101863.13;5034133;28;20029;-77
2023/09/15 00:36:49;;;;;;;7.25;5.05;;;;;;;10.41;98.78;101862.28;5049200;28;20036;-77
2023/09/15 00:39:14;;;;;;;7.60;4.90;;;;;;;10.38;99.16;101859.91;5052351;28;20465;-76
2023/09/15 00:41:40;;;;;;;9.57;5.20;;;;;;;10.35;99.55;101854.84;5050983;28;20385;-76
2023/09/15 00:44:05;;;;;;;9.02;5.50;;;;;;;10.29;99.82;101857.25;5051178;28;20108;-76
2023/09/15 00:46:30;;;;;;;6.80;4.80;;;;;;;10.29;99.78;101853.69;5051000;28;20029;-76
2023/09/15 00:48:57;;;;;;;6.75;5.15;;;;;;;10.24;100.00;101840.75;5033407;28;20469;-76
2023/09/15 00:51:23;;;;;;;10.68;5.85;;;;;;;10.20;100.00;101841.28;5051248;28;20028;-77
2023/09/15 00:53:48;;;;;;;5.80;5.20;;;;;;;10.13;100.00;101846.50;5013719;28;20029;-77
2023/09/15 00:56:14;;;;;;;9.77;5.38;;;;;;;10.12;100.00;101848.34;5051267;28;20487;-77
2023/09/15 00:58:40;;;;;;;7.85;5.57;;;;;;;10.10;100.00;101855.72;5039489;28;20043;-76
2023/09/15 01:01:06;;;;;;;8.73;5.60;;;;;;;10.11;100.00;101846.66;5036852;28;20033;-76
2023/09/15 01:03:34;;;;;;;8.98;5.47;;;;;;;10.06;100.00;101846.31;5055894;28;20029;-76
2023/09/15 01:06:01;;;;;;;10.52;5.50;;;;;;;10.01;100.00;101843.31;5030016;28;20064;-76
2023/09/15 01:08:26;;;;;;;7.75;5.70;;;;;;;9.95;100.00;101844.81;5043659;28;20021;-76
2023/09/15 01:10:51;;;;;;;8.90;5.93;;;;;;;9.97;100.00;101840.09;5051091;28;20380;-76
2023/09/15 01:13:23;;;;;;;12.85;5.80;;;;;;;10.00;100.00;101838.94;5033785;28;20405;-76
2023/09/15 01:15:54;;;;;;;6.95;5.03;;;;;;;9.94;100.00;101829.69;5032258;28;20040;-76
2023/09/15 01:18:26;;;;;;;8.73;5.30;;;;;;;9.89;100.00;101826.66;5018541;28;20033;-76
2023/09/15 01:21:32;;;;;;;6.70;5.70;;;;;;;9.90;100.00;101830.19;5052353;28;20036;-76
2023/09/15 01:24:18;;;;;;;7.80;5.53;;;;;;;9.79;100.00;101829.50;5033216;28;20021;-76
2023/09/15 01:26:59;;;;;;;10.02;6.30;;;;;;;9.78;100.00;101827.84;5049225;28;20381;-76
2023/09/15 01:29:51;;;;;;;10.40;6.18;;;;;;;9.80;100.00;101823.13;5034184;28;20112;-77
2023/09/15 01:32:17;;;;;;;8.65;5.82;;;;;;;9.75;100.00;101825.47;5046521;28;20504;-76
2023/09/15 01:34:52;;;;;;;10.15;6.03;;;;;;;9.83;100.00;101830.00;5019657;28;20075;-77
2023/09/15 01:37:18;;;;;;;7.55;5.47;;;;;;;9.77;100.00;101812.69;5045269;28;20033;-76
2023/09/15 01:39:43;;;;;;;8.82;6.07;;;;;;;9.73;100.00;101810.53;5051896;28;20025;-76
2023/09/15 01:42:09;;;;;;;9.35;5.63;;;;;;;9.68;100.00;101811.03;5046391;28;20079;-76
2023/09/15 01:44:34;;;;;;;8.35;5.63;;;;;;;9.69;100.00;101815.41;5049891;28;20037;-76
2023/09/15 01:47:00;;;;;;;7.38;6.00;;;;;;;9.69;100.00;101808.16;5049368;28;20369;-76
2023/09/15 01:49:25;;;;;;;9.52;6.00;;;;;;;9.75;100.00;101809.34;5050367;28;20036;-76
2023/09/15 01:51:51;;;;;;;10.70;6.15;;;;;;;9.73;100.00;101814.03;5031706;28;20053;-76
2023/09/15 01:54:16;;;;;;;8.38;5.88;;;;;;;9.73;100.00;101807.84;5014992;28;20040;-76
2023/09/15 01:56:41;;;;;;;15.10;6.28;;;;;;;9.69;100.00;101812.72;5032444;28;20020;-77
2023/09/15 01:59:07;;;;;;;8.15;5.72;;;;;;;9.65;100.00;101806.81;5031107;28;20032;-76
2023/09/15 02:01:32;;;;;;;9.02;6.03;;;;;;;9.63;100.00;101805.31;5047425;28;20039;-77
2023/09/15 02:03:58;;;;;;;7.55;5.80;;;;;;;9.60;100.00;101800.25;5049376;28;20110;-77
2023/09/15 02:06:23;;;;;;;10.45;5.97;;;;;;;9.64;100.00;101804.31;5050917;28;20025;-77
2023/09/15 02:08:49;;;;;;;7.00;5.70;;;;;;;9.62;100.00;101809.00;5048998;28;20461;-78
2023/09/15 02:11:14;;;;;;;11.82;6.03;;;;;;;9.55;100.00;101804.28;5051209;28;20090;-77
2023/09/15 02:13:41;;;;;;;9.77;6.72;;;;;;;9.55;100.00;101815.03;5049630;28;20025;-78
2023/09/15 02:16:12;;;;;;;10.05;6.05;;;;;;;9.50;100.00;101805.78;5050099;28;20072;-77
2023/09/15 02:18:37;;;;;;;9.80;5.68;;;;;;;9.43;100.00;101805.63;5051242;28;20103;-77
2023/09/15 02:21:03;;;;;;;8.18;6.13;;;;;;;9.37;100.00;101806.28;5047642;28;20583;-76
2023/09/15 02:23:29;;;;;;;8.20;5.70;;;;;;;9.29;100.00;101800.91;5048949;28;20055;-77
2023/09/15 02:25:55;;;;;;;10.05;6.18;;;;;;;9.31;100.00;101804.28;5050425;28;20044;-76
2023/09/15 02:28:20;;;;;;;9.35;6.15;;;;;;;9.23;100.00;101800.53;5027690;28;20029;-76
2023/09/15 02:30:46;;;;;;;9.13;6.72;;;;;;;9.27;100.00;101808.28;5044461;28;20090;-77
2023/09/15 02:33:11;;;;;;;9.50;6.07;;;;;;;9.22;100.00;101806.09;5047656;28;20037;-76
2023/09/15 02:35:37;;;;;;;11.57;6.38;;;;;;;9.19;100.00;101798.34;5050094;28;20035;-77
2023/09/15 02:38:06;;;;;;;;;;;;;;;9.14;100.00;101800.69;5053674;28;20040;-77
2023/09/15 02:40:31;;;;;;;11.65;5.95;;;;;;;9.09;100.00;101803.88;5053480;28;20398;-77
2023/09/15 02:42:56;;;;;;;8.57;6.13;;;;;;;9.04;100.00;101801.69;5055513;28;20025;-79
2023/09/15 02:45:22;;;;;;;;;;;;;;;8.95;100.00;101799.97;5053895;28;20039;-77
2023/09/15 02:47:47;;;;;;;9.85;6.47;;;;;;;8.99;100.00;101803.19;5056659;28;19959;-76
2023/09/15 02:50:12;;;;;;;;;;;;;;;8.95;100.00;101802.66;5053695;28;20059;-77
2023/09/15 02:52:38;;;;;;;8.45;6.05;;;;;;;8.90;100.00;101796.94;5049070;28;20462;-77
2023/09/15 02:55:04;;;;;;;8.85;6.32;;;;;;;8.86;100.00;101799.09;5048831;28;20477;-76
2023/09/15 02:57:30;;;;;;;10.07;6.30;;;;;;;8.86;100.00;101798.25;5047805;28;20024;-77
2023/09/15 02:59:55;;;;;;;7.82;6.38;;;;;;;8.82;100.00;101791.53;5049809;28;20112;-76
2023/09/15 03:02:21;;;;;;;9.32;5.97;;;;;;;8.78;100.00;101791.84;5042798;28;20025;-78
2023/09/15 03:04:46;;;;;;;;;;;;;;;8.77;100.00;101784.78;5033204;28;20543;-78
2023/09/15 03:07:12;;;;;;;9.48;6.20;;;;;;;8.80;100.00;101780.97;5031066;28;19924;-76
2023/09/15 03:09:37;;;;;;;;;;;;;;;8.78;100.00;101782.97;5049255;28;21549;-76
2023/09/15 03:12:03;;;;;;;9.73;5.67;;;;;;;8.76;100.00;101782.28;5043379;28;20272;-77
2023/09/15 03:14:29;;;;;;;8.40;6.57;;;;;;;8.75;100.00;101775.22;5030792;28;20036;-77
2023/09/15 03:16:54;;;;;;;10.73;6.22;;;;;;;8.74;100.00;101779.75;5049024;28;20032;-77
2023/09/15 03:19:21;;;;;;;9.30;6.13;;;;;;;8.71;100.00;101776.53;5048498;28;20028;-76
2023/09/15 03:21:47;;;;;;;12.32;6.25;;;;;;;8.70;100.00;101775.72;5047607;28;20436;-77
2023/09/15 03:24:12;;;;;;;8.25;6.35;;;;;;;8.65;100.00;101776.19;5049023;28;20518;-77
2023/09/15 03:26:39;;;;;;;9.07;6.38;;;;;;;8.62;100.00;101775.66;5046869;28;20040;-77
2023/09/15 03:29:04;;;;;;;9.60;6.97;;;;;;;8.57;100.00;101770.78;5049592;28;20033;-77
2023/09/15 03:31:30;;;;;;;7.47;6.18;;;;;;;8.57;100.00;101775.31;5047759;28;20032;-77
2023/09/15 03:33:55;;;;;;;8.27;6.35;;;;;;;8.56;100.00;101779.84;5050163;28;20021;-77
2023/09/15 03:36:21;;;;;;;10.80;7.47;;;;;;;8.54;100.00;101784.53;5047524;28;20025;-76
2023/09/15 03:38:47;;;;;;;9.48;6.68;;;;;;;8.48;100.00;101775.28;5021021;28;20496;-78
2023/09/15 03:41:12;;;;;;;;;;;;;;;8.43;100.00;101771.38;5045470;28;20074;-78
2023/09/15 03:43:38;;;;;;;9.67;7.07;;;;;;;8.43;100.00;101769.50;5048269;28;19921;-78
2023/09/15 03:46:03;;;;;;;;;;;;;;;8.37;100.00;101772.00;5046235;28;20386;-78
2023/09/15 03:48:30;;;;;;;9.80;6.40;;;;;;;8.33;100.00;101772.31;5048661;28;20479;-78
2023/09/15 03:50:56;;;;;;;13.68;7.28;;;;;;;8.34;100.00;101768.63;5044181;28;20107;-78
2023/09/15 03:53:21;;;;;;;9.75;6.60;;;;;;;8.32;100.00;101765.25;5027527;28;20029;-78
2023/09/15 03:55:48;;;;;;;;;;;;;;;8.33;100.00;101764.25;5045388;28;20388;-78
2023/09/15 03:58:14;;;;;;;8.47;6.97;;;;;;;8.30;100.00;101756.53;5047380;28;19921;-77
2023/09/15 04:00:39;;;;;;;;;;;;;;;8.25;100.00;101758.88;5044532;28;20094;-77
2023/09/15 04:03:04;;;;;;;8.50;6.90;;;;;;;8.23;100.00;101760.88;5038353;28;20273;-77
2023/09/15 04:05:30;;;;;;;11.70;8.10;;;;;;;8.20;100.00;101753.13;5041392;28;20381;-76
2023/09/15 04:07:56;;;;;;;;;;;;;;;8.19;100.00;101755.00;5031803;28;20033;-77
2023/09/15 04:10:22;;;;;;;13.55;7.45;;;;;;;8.20;100.00;101750.44;5029408;28;19936;-77
2023/09/15 04:12:47;;;;;;;10.77;7.13;;;;;;;8.17;100.00;101751.63;5044688;28;20018;-77
2023/09/15 04:15:15;;;;;;;11.13;7.53;;;;;;;8.15;100.00;101755.44;5041520;28;20045;-76
2023/09/15 04:17:40;;;;;;;14.95;8.52;;;;;;;8.16;100.00;101752.63;5049235;28;20021;-77
2023/09/15 04:20:09;;;;;;;13.18;8.10;;;;;;;8.18;100.00;101752.44;5043956;28;20384;-76
2023/09/15 04:22:36;;;;;;;11.60;7.68;;;;;;;8.20;100.00;101763.88;5042385;28;20489;-75
2023/09/15 04:25:01;;;;;;;10.15;7.20;;;;;;;8.15;100.00;101758.13;5041865;28;20114;-76
2023/09/15 04:27:27;;;;;;;15.95;8.45;;;;;;;8.16;100.00;101754.44;5041014;28;20468;-76
2023/09/15 04:29:54;;;;;;;;;;;;;;;8.19;100.00;101754.13;5048408;28;20029;-76
2023/09/15 04:32:19;;;;;;;10.02;7.40;;;;;;;8.15;100.00;101756.31;5047372;28;19924;-76
2023/09/15 04:34:45;;;;;;;11.90;8.40;;;;;;;8.15;100.00;101753.63;5045206;28;20403;-76
2023/09/15 04:37:10;;;;;;;;;;;;;;;8.09;100.00;101754.25;5046207;28;20037;-76
2023/09/15 04:39:35;;;;;;;16.23;7.53;;;;;;;8.06;100.00;101751.03;5046690;28;19931;-77
2023/09/15 04:42:01;;;;;;;14.98;8.15;;;;;;;8.07;100.00;101752.72;5045789;28;20037;-76
2023/09/15 04:44:26;;;;;;;;;;;;;;;8.01;100.00;101765.75;5048787;28;20122;-77
2023/09/15 04:46:51;;;;;;;11.07;7.73;;;;;;;8.07;100.00;101766.13;5049341;28;19917;-77
2023/09/15 04:49:17;;;;;;;13.88;8.55;;;;;;;8.03;100.00;101766.44;5051757;28;20021;-77
2023/09/15 04:51:42;;;;;;;;;;;;;;;8.03;100.00;101760.25;5054307;28;20116;-77
2023/09/15 04:54:07;;;;;;;11.07;8.30;;;;;;;8.01;100.00;101765.75;5049684;28;19920;-78
2023/09/15 04:56:33;;;;;;;12.07;7.65;;;;;;;8.01;100.00;101765.75;5049054;28;20017;-76
2023/09/15 04:58:58;;;;;;;10.02;7.88;;;;;;;7.99;100.00;101764.25;5050080;28;20467;-77
2023/09/15 05:01:23;;;;;;;;;;;;;;;7.96;100.00;101765.38;5051736;28;20032;-76
2023/09/15 05:03:49;;;;;;;11.35;8.00;;;;;;;7.98;100.00;101766.06;5049364;28;19912;-76
2023/09/15 05:06:14;;;;;;;;;;;;;;;7.93;100.00;101759.50;5053397;28;20256;-77
2023/09/15 05:08:39;;;;;;;12.00;8.27;;;;;;;7.91;100.00;101762.34;5048824;28;20007;-78
2023/09/15 05:11:05;;;;;;;10.90;8.55;;;;;;;7.89;100.00;101758.97;5032592;28;20514;-78
2023/09/15 05:13:30;;;;;;;;;;;;;;;7.86;100.00;101764.66;5050806;28;20041;-77
2023/09/15 05:15:56;;;;;;;13.10;8.17;;;;;;;7.89;100.00;101758.97;5035480;28;19928;-78
2023/09/15 05:18:21;;;;;;;;;;;;;;;7.98;100.00;101763.38;5032561;28;20647;-78
2023/09/15 05:20:46;;;;;;;11.73;9.30;;;;;;;8.04;100.00;101757.41;5033662;28;19917;-77
2023/09/15 05:23:12;;;;;;;;;;;;;;;8.08;100.00;101759.78;5030292;28;20292;-76
2023/09/15 05:25:37;;;;;;;11.47;8.40;;;;;;;8.12;100.00;101764.66;5036569;28;20454;-77
2023/09/15 05:28:04;;;;;;;14.07;9.65;;;;;;;8.21;100.00;101768.22;5038813;28;20461;-77
2023/09/15 05:30:31;;;;;;;11.68;8.98;;;;;;;8.30;100.00;101761.91;5041411;28;20022;-79
2023/09/15 05:32:56;;;;;;;13.05;9.05;;;;;;;8.34;100.00;101765.94;5042032;28;20030;-74
2023/09/15 05:35:22;;;;;;;13.05;8.30;;;;;;;8.40;100.00;101772.50;5032542;28;20331;-77
2023/09/15 05:37:50;;;;;;;;;;;;;;;8.45;100.00;101766.69;5030647;28;20033;-77
2023/09/15 05:40:15;;;;;;;12.35;8.05;;;;;;;8.54;100.00;101765.75;5031158;28;19967;-76
2023/09/15 05:42:41;;;;;;;11.55;8.25;;;;;;;8.61;100.00;101769.47;5022480;28;20116;-76
2023/09/15 05:45:06;;;;;;;;;;;;;;;8.67;100.00;101772.50;5025283;28;20457;-76
2023/09/15 05:47:33;;;;;;;9.18;7.55;;;;;;;8.78;100.00;101770.38;5029840;28;19967;-78
2023/09/15 05:50:00;;;;;;;11.10;7.68;;;;;;;8.89;100.00;101771.09;5032635;28;20030;-77
2023/09/15 05:52:26;;;;;;;10.43;7.55;;;;;;;9.01;100.00;101763.53;5030743;28;20299;-77
2023/09/15 05:54:51;;;;;;;9.57;7.80;;;;;;;9.09;100.00;101767.09;5031683;28;20252;-77
2023/09/15 05:57:20;;;;;;;;;;;;;;;9.24;100.00;101780.72;5032457;28;20037;-77
2023/09/15 05:59:47;;;;;;;9.48;7.45;;;;;;;9.41;100.00;101775.38;5035850;28;20300;-77
2023/09/15 06:02:14;;;;;;;9.93;6.97;;;;;;;9.63;100.00;101783.81;5028099;28;20029;-75
2023/09/15 06:04:42;;;;;;;11.77;6.75;;;;;;;9.86;100.00;101775.88;5030559;28;20018;-76
2023/09/15 06:07:08;;;;;;;8.88;6.55;;;;;;;10.03;100.00;101776.72;5028247;28;20029;-76
2023/09/15 06:09:33;;;;;;;9.27;6.80;;;;;;;10.34;100.00;101783.19;5031550;28;20032;-76
2023/09/15 06:11:58;;;;;;;9.20;6.50;;;;;;;10.92;100.00;101781.19;5032567;28;20473;-78
2023/09/15 06:14:27;;;;;;;9.68;5.80;;;;;;;12.07;96.35;101781.34;5033915;28;20041;-76
2023/09/15 06:16:53;;;;;;;8.18;5.70;;;;;;;13.46;86.46;101782.50;5047053;28;20104;-75
2023/09/15 06:19:21;;;;;;;8.73;5.28;;;;;;;14.80;79.57;101790.75;5047676;28;20051;-76
2023/09/15 06:21:46;;;;;;;9.63;5.88;;;;;;;15.81;73.57;101783.63;5048580;28;20035;-78
2023/09/15 06:24:12;;;;;;;8.70;5.10;;;;;;;16.39;70.82;101784.00;5051632;28;20025;-76
2023/09/15 06:26:38;;;;;;;8.70;5.18;;;;;;;17.22;65.83;101794.13;5049071;28;20020;-76
2023/09/15 06:29:03;;;;;;;7.43;5.10;;;;;;;17.47;63.08;101789.81;5045265;28;20373;-76
2023/09/15 06:31:28;;;;;;;9.93;5.20;;;;;;;17.79;62.56;101795.22;5050584;28;20025;-77
2023/09/15 06:33:54;;;;;;;8.38;5.55;;;;;;;18.13;60.97;101793.06;5049530;28;20032;-78
2023/09/15 06:36:19;;;;;;;7.43;4.93;;;;;;;18.17;60.07;101794.28;5042250;28;20025;-77
2023/09/15 06:38:44;;;;;;;7.53;5.03;;;;;;;18.45;59.14;101792.91;5053599;28;20017;-77
2023/09/15 06:41:10;;;;;;;6.70;4.93;;;;;;;18.12;59.79;101799.56;5066864;28;20031;-77
2023/09/15 06:43:36;;;;;;;8.80;5.10;;;;;;;18.64;59.94;101797.31;5082478;23;20053;-77
2023/09/15 06:46:04;;;;;;;7.03;4.80;;;;;;;19.48;56.49;101793.06;5077105;28;20130;-77
2023/09/15 06:48:32;;;;;;;7.90;4.60;;;;;;;19.82;55.46;101793.34;5071435;28;20025;-77
2023/09/15 06:50:57;;;;;;;8.65;4.95;;;;;;;20.60;51.94;101784.19;5048055;28;20029;-74
2023/09/15 06:53:24;;;;;;;7.45;4.70;;;;;;;20.63;52.95;101783.69;5068567;28;20035;-75
2023/09/15 06:55:49;;;;;;;8.73;4.65;;;;;;;20.54;52.29;101793.34;5070419;28;20028;-76
2023/09/15 06:58:15;;;;;;;6.35;4.57;;;;;;;21.20;51.83;101782.06;5070281;28;20170;-76
2023/09/15 07:00:40;;;;;;;7.07;4.57;;;;;;;20.69;52.38;101790.91;5066856;28;20455;-76
2023/09/15 07:03:05;;;;;;;6.72;4.50;;;;;;;20.47;52.84;101781.72;5068444;28;20028;-76
2023/09/15 07:05:31;;;;;;;5.05;4.35;;;;;;;21.62;50.18;101789.94;5069572;28;20372;-77
2023/09/15 07:07:56;;;;;;;6.07;4.50;;;;;;;20.54;53.12;101774.19;5069756;28;20370;-75
2023/09/15 07:10:22;;;;;;;6.43;4.20;;;;;;;21.09;50.94;101785.69;5068424;28;20411;-75
2023/09/15 07:12:48;;;;;;;5.65;4.15;;;;;;;21.56;49.87;101781.88;5069002;28;20037;-74
2023/09/15 07:15:13;;;;;;;8.98;4.47;;;;;;;21.15;51.04;101781.97;5071622;28;20032;-74
2023/09/15 07:17:39;;;;;;;6.43;4.05;;;;;;;21.49;49.03;101776.56;5071110;28;20056;-74
2023/09/15 07:20:08;;;;;;;7.30;4.68;;;;;;;21.52;49.85;101773.31;5069904;28;20060;-74
2023/09/15 07:22:34;;;;;;;7.30;4.20;;;;;;;22.18;47.20;101769.13;5063136;28;20103;-75
2023/09/15 07:24:59;;;;;;;7.35;4.00;;;;;;;22.89;47.08;101773.03;5073337;28;20035;-75
2023/09/15 07:27:25;;;;;;;5.40;3.80;;;;;;;23.22;45.34;101771.22;5068392;28;20361;-75
2023/09/15 07:29:53;;;;;;;6.78;4.18;;;;;;;22.96;46.27;101773.66;5069140;28;20039;-75
2023/09/15 07:32:18;;;;;;;6.38;3.92;;;;;;;23.37;43.27;101765.84;5076226;28;20382;-75
2023/09/15 07:34:44;;;;;;;5.57;4.07;;;;;;;23.97;43.51;101770.44;5071707;28;20020;-74
2023/09/15 07:37:10;;;;;;;6.75;4.13;;;;;;;23.81;43.79;101769.50;5070578;28;20043;-75
2023/09/15 07:39:35;;;;;;;5.45;3.80;;;;;;;23.84;44.33;101768.94;5069737;28;20020;-79
2023/09/15 07:44:36;;;;;;;;;;;;;;;25.10;41.44;101770.09;5065659;23;20056;-75
2023/09/15 07:47:04;;;;;;;5.53;3.42;;;;;;;24.94;41.01;101759.03;5044818;28;19916;-76
2023/09/15 07:49:29;;;;;;;5.38;3.70;;;;;;;24.68;41.81;101764.47;5051496;28;20025;-74
2023/09/15 07:51:54;;;;;;;5.13;3.15;;;;;;;25.54;40.66;101758.56;5042532;28;20039;-74
2023/09/15 07:54:20;;;;;;;8.43;4.13;;;;;;;25.54;39.89;101753.06;5049951;28;20361;-75
2023/09/15 07:56:45;;;;;;;5.22;3.63;;;;;;;24.32;43.05;101755.22;5044361;28;20033;-75
2023/09/15 07:59:11;;;;;;;6.88;3.63;;;;;;;23.77;43.43;101749.94;5040493;28;20029;-74
2023/09/15 08:01:36;;;;;;;4.90;3.35;;;;;;;25.03;41.09;101750.25;5043948;28;20293;-75
2023/09/15 08:04:02;;;;;;;4.85;3.55;;;;;;;25.06;40.45;101747.78;5043853;28;20038;-74
2023/09/15 08:06:28;;;;;;;5.72;3.45;;;;;;;25.58;40.08;101745.91;5065698;22;20056;-75
2023/09/15 08:08:54;;;;;;;7.07;3.80;;;;;;;25.22;40.12;101745.03;5068438;28;20063;-74
2023/09/15 08:11:19;;;;;;;6.82;3.40;;;;;;;25.71;40.07;101741.72;5067941;28;20033;-75
2023/09/15 08:13:47;;;;;;;6.50;3.55;;;;;;;25.01;41.28;101749.69;5066368;28;20017;-75
2023/09/15 08:16:12;;;;;;;5.28;3.70;;;;;;;26.47;38.18;101747.34;5069549;28;20104;-75
2023/09/15 08:18:40;;;;;;;4.63;3.90;;;;;;;26.17;38.70;101746.31;5067662;28;20031;-74
2023/09/15 08:21:06;;;;;;;4.53;2.80;;;;;;;26.43;38.54;101746.25;5070932;28;20024;-74
2023/09/15 08:23:32;;;;;;;4.28;3.40;;;;;;;27.10;37.19;101745.03;5071678;28;20028;-75
2023/09/15 08:26:01;;;;;;;6.90;3.50;;;;;;;28.01;35.54;101745.63;5070516;28;20048;-73
2023/09/15 08:28:26;;;;;;;7.40;3.33;;;;;;;26.99;37.95;101744.31;5063522;28;20032;-75
2023/09/15 08:30:54;;;;;;;5.70;3.28;;;;;;;26.63;38.51;101738.97;5069135;28;20461;-75
2023/09/15 08:33:20;;;;;;;5.43;3.05;;;;;;;27.80;35.44;101740.31;5070715;28;20439;-75
2023/09/15 08:35:45;;;;;;;4.57;3.10;;;;;;;27.00;36.72;101740.44;5069494;28;20012;-75
2023/09/15 08:38:12;;;;;;;4.57;3.30;;;;;;;27.04;36.39;101741.47;5069199;28;20531;-75
2023/09/15 08:40:47;;;;;;;7.10;3.17;;;;;;;27.90;35.40;101744.91;5063484;28;20041;-74
2023/09/15 08:43:12;;;;;;;;;;;;;;;27.88;35.72;101744.38;5037499;28;20028;-75
2023/09/15 08:45:38;;;;;;;6.03;3.00;;;;;;;27.69;34.86;101743.19;5072810;28;19924;-74
2023/09/15 08:48:04;;;;;;;5.22;2.95;;;;;;;27.04;35.95;101744.25;5052916;28;20028;-75
2023/09/15 08:50:30;;;;;;;6.25;3.20;;;;;;;25.97;38.88;101746.34;5070813;28;20028;-75
2023/09/15 08:52:55;;;;;;;5.53;2.83;;;;;;;26.17;38.14;101743.56;5054007;28;20037;-75
2023/09/15 08:55:20;;;;;;;4.20;2.67;;;;;;;27.36;35.26;101745.63;5055293;28;20116;-74
2023/09/15 08:57:46;;;;;;;3.70;2.40;;;;;;;27.28;36.51;101732.47;5069304;28;20036;-74
2023/09/15 09:00:12;;;;;;;4.88;2.92;;;;;;;28.27;33.39;101730.38;5053337;28;20036;-75
2023/09/15 09:02:38;;;;;;;5.90;3.05;;;;;;;27.57;34.46;101722.56;5051449;28;20029;-75
2023/09/15 09:05:04;;;;;;;5.18;2.70;;;;;;;28.22;33.92;101722.16;5071087;28;20455;-74
2023/09/15 09:07:39;;;;;;;7.20;3.05;;;;;;;28.39;33.20;101715.28;5069519;28;20545;-74
2023/09/15 09:10:04;;;;;;;6.38;3.03;;;;;;;28.11;33.87;101715.91;5045386;28;20227;-74
2023/09/15 09:12:30;;;;;;;4.55;2.85;;;;;;;28.97;33.55;101719.72;5053474;28;20048;-75
2023/09/15 09:14:56;;;;;;;5.68;3.05;;;;;;;28.59;33.44;101717.75;5048098;28;20029;-75
2023/09/15 09:17:22;;;;;;;5.30;3.10;;;;;;;28.57;33.64;101711.69;5071168;28;20029;-75
2023/09/15 09:19:49;;;;;;;4.78;3.10;;;;;;;27.71;34.27;101714.41;5068930;28;20023;-75
2023/09/15 09:22:18;;;;;;;5.05;2.78;;;;;;;27.90;34.14;101715.28;5070385;28;20033;-74
2023/09/15 09:24:45;;;;;;;5.30;3.08;;;;;;;26.89;35.39;101714.81;5069648;28;20024;-75
2023/09/15 09:27:11;;;;;;;8.05;3.30;;;;;;;26.69;35.75;101715.72;5068106;28;20028;-75
2023/09/15 09:29:37;;;;;;;6.70;3.00;;;;;;;26.75;36.28;101714.56;5070057;28;20165;-75
2023/09/15 09:32:03;;;;;;;3.85;2.80;;;;;;;26.93;36.32;101717.81;5068771;28;20047;-75
2023/09/15 09:34:31;;;;;;;4.53;2.88;;;;;;;26.20;37.79;101703.56;5063042;28;20048;-75
2023/09/15 09:37:00;;;;;;;3.78;2.65;;;;;;;25.80;37.72;101714.41;5067845;28;20630;-75
2023/09/15 09:39:26;;;;;;;4.65;2.55;;;;;;;26.99;36.02;101707.53;5053462;28;20033;-75
2023/09/15 09:41:51;;;;;;;9.77;3.22;;;;;;;27.02;36.88;101718.81;5066518;28;20036;-75
2023/09/15 09:44:19;;;;;;;4.47;2.80;;;;;;;26.60;36.75;101706.38;5070283;28;20475;-74
2023/09/15 09:46:45;;;;;;;4.60;2.65;;;;;;;27.52;35.11;101699.34;5069410;28;20074;-74
2023/09/15 09:49:11;;;;;;;4.10;2.85;;;;;;;27.04;35.25;101707.50;5051351;28;20505;-74
2023/09/15 09:51:37;;;;;;;3.60;2.47;;;;;;;27.81;34.18;101703.22;5061041;28;20039;-74
2023/09/15 09:54:03;;;;;;;5.55;2.50;;;;;;;28.24;33.37;101700.50;5069504;28;20025;-74
2023/09/15 09:56:30;;;;;;;3.22;2.10;;;;;;;28.99;31.88;101694.47;5067921;28;20063;-75
2023/09/15 09:59:01;;;;;;;4.18;2.72;;;;;;;28.73;31.19;101690.16;5062694;28;20179;-74
2023/09/15 10:01:28;;;;;;;3.75;2.22;;;;;;;28.51;31.33;101696.28;5068196;28;20060;-74
2023/09/15 10:03:53;;;;;;;3.75;2.42;;;;;;;28.04;32.16;101686.91;5067667;28;20024;-74
2023/09/15 10:06:18;;;;;;;3.40;2.20;;;;;;;28.82;30.87;101692.25;5069288;28;20032;-74
2023/09/15 10:08:46;;;;;;;3.88;2.38;;;;;;;28.01;33.04;101687.50;5067262;28;20048;-74
2023/09/15 10:11:11;;;;;;;3.95;2.60;;;;;;;27.37;33.08;101683.69;5068806;28;20067;-74
2023/09/15 10:13:36;;;;;;;4.50;2.40;;;;;;;29.44;30.58;101683.75;5050225;28;20096;-74
2023/09/15 10:16:02;;;;;;;4.53;2.55;;;;;;;29.77;30.40;101688.38;5057945;28;20170;-74
2023/09/15 10:18:28;;;;;;;3.83;2.50;;;;;;;28.78;31.80;101680.94;5078506;28;20033;-74
2023/09/15 10:20:54;;;;;;;3.00;2.60;;;;;;;28.34;32.62;101684.88;5060609;28;20057;-74
2023/09/15 10:23:20;;;;;;;5.78;2.67;;;;;;;28.12;32.67;101675.19;5041092;28;20028;-73
2023/09/15 10:25:52;;;;;;;4.18;2.63;;;;;;;27.74;33.01;101673.13;5052928;28;20044;-74
2023/09/15 10:28:18;;;;;;;4.97;2.70;;;;;;;28.29;32.38;101667.22;5061681;28;20032;-74
2023/09/15 10:30:43;;;;;;;3.95;2.95;;;;;;;29.49;31.38;101663.41;5052223;28;20024;-74
2023/09/15 10:33:10;;;;;;;3.30;2.22;;;;;;;30.93;28.49;101664.22;5066599;28;20375;-73
2023/09/15 10:35:39;;;;;;;4.25;2.50;;;;;;;30.07;30.14;101664.75;5062530;28;20060;-73
2023/09/15 10:38:04;;;;;;;4.20;2.95;;;;;;;29.61;30.30;101666.47;5067183;28;20323;-73
2023/09/15 10:40:46;;;;;;;4.60;2.92;;;;;;;28.91;31.00;101664.69;5066774;28;20357;-74
2023/09/15 10:43:11;;;;;;;4.93;2.95;;;;;;;29.37;30.42;101654.75;5069961;28;20036;-74
2023/09/15 10:45:37;;;;;;;6.68;3.15;;;;;;;29.06;30.66;101653.31;5068593;28;20025;-74
2023/09/15 10:48:04;;;;;;;3.95;2.90;;;;;;;28.17;32.48;101652.16;5065733;28;20093;-74
2023/09/15 10:50:39;;;;;;;4.65;2.60;;;;;;;28.29;33.70;101645.06;5064604;28;20040;-74
2023/09/15 10:53:06;;;;;;;5.07;3.10;;;;;;;28.92;32.53;101656.06;5072902;28;20033;-74
2023/09/15 10:55:32;;;;;;;5.07;3.53;;;;;;;29.18;31.22;101648.13;5062638;28;20024;-73
2023/09/15 10:58:04;;;;;;;3.85;3.08;;;;;;;30.69;29.36;101648.66;5058457;28;20050;-74
2023/09/15 11:00:30;;;;;;;6.70;3.63;;;;;;;30.00;29.98;101639.38;5052505;28;20684;-74
2023/09/15 11:02:56;;;;;;;6.45;3.83;;;;;;;29.89;29.54;101649.84;5061923;28;20483;-74
2023/09/15 11:05:21;;;;;;;4.85;4.10;;;;;;;28.39;32.64;101637.75;5067316;28;20029;-74
2023/09/15 11:07:49;;;;;;;5.85;3.88;;;;;;;28.71;31.56;101634.19;5069401;28;20036;-74
2023/09/15 11:10:15;;;;;;;4.88;3.60;;;;;;;29.16;32.01;101630.97;5031606;28;20291;-75
2023/09/15 11:12:41;;;;;;;4.93;3.60;;;;;;;29.44;31.15;101625.50;5068573;28;20328;-75
2023/09/15 11:15:07;;;;;;;5.00;3.75;;;;;;;29.77;30.48;101630.94;5068527;28;20075;-75
2023/09/15 11:17:32;;;;;;;4.30;3.70;;;;;;;28.93;31.80;101627.22;5048454;28;20040;-75
2023/09/15 11:19:59;;;;;;;5.60;4.00;;;;;;;28.88;31.65;101619.81;5068681;28;20096;-74
2023/09/15 11:22:25;;;;;;;7.20;3.83;;;;;;;29.52;30.83;101618.41;5066197;28;20033;-75
2023/09/15 11:24:53;;;;;;;5.00;4.00;;;;;;;28.40;32.23;101606.97;5066851;28;20043;-75
2023/09/15 11:27:19;;;;;;;6.05;3.80;;;;;;;29.20;31.45;101609.81;5067361;28;20065;-74